Time;durP1;ratioP1;P1;durP2;ratioP2;P2;SDS_P1;SDS_P2;PMS_P1;PMS_P2;Temp;Humidity;BMP_temperature;BMP_pressure;BME280_temperature;BME280_humidity;BME280_pressure;Samples;Min_cycle;Max_cycle;Signal;HPM_P1;HPM_P2
2021/08/14 00:00:22;;;;;;;5.22;4.05;;;17.30;99.90;;;;;;4188894;28;20110;-63
2021/08/14 00:02:23;;;;;;;6.43;4.55;;;17.30;99.90;;;;;;4189196;28;20041;-63
2021/08/14 00:04:25;;;;;;;6.82;4.07;;;17.30;99.90;;;;;;4189073;28;20036;-63
2021/08/14 00:06:26;;;;;;;8.00;4.47;;;17.20;99.90;;;;;;4190351;28;20157;-62
2021/08/14 00:08:27;;;;;;;7.63;4.65;;;17.30;99.90;;;;;;4187955;28;20040;-62
2021/08/14 00:10:28;;;;;;;8.88;4.25;;;17.20;99.90;;;;;;4190628;28;20059;-63
2021/08/14 00:12:29;;;;;;;7.13;4.45;;;17.20;99.90;;;;;;4188404;28;20032;-63
2021/08/14 00:14:31;;;;;;;4.63;3.72;;;17.20;99.90;;;;;;4189440;28;20032;-63
2021/08/14 00:16:32;;;;;;;5.00;4.32;;;17.20;99.90;;;;;;4188387;28;20048;-63
2021/08/14 00:18:33;;;;;;;5.57;3.70;;;17.10;99.90;;;;;;4189362;28;20028;-63
2021/08/14 00:20:34;;;;;;;6.47;4.03;;;17.20;99.90;;;;;;4189047;28;20800;-63
2021/08/14 00:22:36;;;;;;;11.45;4.55;;;17.20;99.90;;;;;;4188902;28;20036;-63
2021/08/14 00:24:38;;;;;;;4.85;4.03;;;17.10;99.90;;;;;;4188791;28;20568;-62
2021/08/14 00:26:40;;;;;;;5.20;3.80;;;17.10;99.90;;;;;;4188906;28;20546;-63
2021/08/14 00:28:41;;;;;;;4.50;3.60;;;17.10;99.90;;;;;;4189441;28;20036;-63
2021/08/14 00:30:42;;;;;;;5.93;4.15;;;17.10;99.90;;;;;;4187292;28;20020;-63
2021/08/14 00:32:43;;;;;;;7.40;3.92;;;17.10;99.90;;;;;;4188848;28;20045;-62
2021/08/14 00:34:44;;;;;;;5.57;3.75;;;17.10;99.90;;;;;;4188934;28;20472;-62
2021/08/14 00:36:45;;;;;;;10.45;4.05;;;17.10;99.90;;;;;;4189466;28;20044;-63
2021/08/14 00:38:47;;;;;;;6.90;3.97;;;17.10;99.90;;;;;;4189290;28;20028;-62
2021/08/14 00:40:48;;;;;;;5.85;4.55;;;17.00;99.90;;;;;;4189635;28;20105;-63
2021/08/14 00:42:49;;;;;;;6.55;4.00;;;17.00;99.90;;;;;;4188324;28;20029;-63
2021/08/14 00:44:50;;;;;;;4.60;3.95;;;16.90;99.90;;;;;;4189541;28;20028;-63
2021/08/14 00:46:52;;;;;;;5.20;4.22;;;16.90;99.90;;;;;;4188101;28;20637;-63
2021/08/14 00:48:53;;;;;;;5.53;4.28;;;16.90;99.90;;;;;;4189706;28;20070;-63
2021/08/14 00:50:54;;;;;;;6.85;4.22;;;16.80;99.90;;;;;;4188435;28;20036;-63
2021/08/14 00:52:57;;;;;;;6.68;4.55;;;16.80;99.90;;;;;;4189048;28;20067;-63
2021/08/14 00:54:58;;;;;;;6.30;4.03;;;16.80;99.90;;;;;;4189198;28;20493;-63
2021/08/14 00:56:59;;;;;;;6.75;4.57;;;16.80;99.90;;;;;;4188262;28;20048;-63
2021/08/14 00:59:00;;;;;;;6.07;4.40;;;16.70;99.90;;;;;;4189506;28;20029;-63
2021/08/14 01:01:03;;;;;;;7.82;5.25;;;16.70;99.90;;;;;;4188590;28;20029;-63
2021/08/14 01:03:05;;;;;;;5.25;4.65;;;16.60;99.90;;;;;;4189251;28;20086;-63
2021/08/14 01:05:07;;;;;;;9.50;4.53;;;16.60;99.90;;;;;;4188247;28;20028;-62
2021/08/14 01:07:08;;;;;;;6.78;4.85;;;16.50;99.90;;;;;;4188926;28;20025;-63
2021/08/14 01:09:10;;;;;;;9.30;4.78;;;16.40;99.90;;;;;;4188218;28;20424;-62
2021/08/14 01:11:12;;;;;;;10.23;5.05;;;16.30;99.90;;;;;;4189524;28;20070;-63
2021/08/14 01:13:14;;;;;;;7.55;4.93;;;16.30;99.90;;;;;;4188482;28;20041;-62
2021/08/14 01:15:15;;;;;;;9.85;4.97;;;16.30;99.90;;;;;;4189734;28;20099;-63
2021/08/14 01:17:18;;;;;;;9.90;5.03;;;16.20;99.90;;;;;;4188102;28;20040;-63
2021/08/14 01:19:20;;;;;;;11.05;5.40;;;16.20;99.90;;;;;;4188799;28;20170;-62
2021/08/14 01:21:25;;;;;;;7.90;4.78;;;16.20;99.90;;;;;;4191101;28;20066;-63
2021/08/14 01:23:26;;;;;;;7.80;4.82;;;16.10;99.90;;;;;;4192337;28;20029;-62
2021/08/14 01:25:27;;;;;;;7.30;4.65;;;16.20;99.90;;;;;;4187076;28;20033;-62
2021/08/14 01:27:28;;;;;;;6.35;4.43;;;16.10;99.90;;;;;;4186633;28;20033;-62
2021/08/14 01:29:29;;;;;;;5.95;4.35;;;16.10;99.90;;;;;;4185736;28;20066;-63
2021/08/14 01:31:30;;;;;;;8.90;4.75;;;16.10;99.90;;;;;;4186356;28;20094;-63
2021/08/14 01:33:34;;;;;;;5.55;3.83;;;16.00;99.90;;;;;;4188879;28;20520;-63
2021/08/14 01:35:35;;;;;;;5.47;4.95;;;15.90;99.90;;;;;;4186706;28;20048;-62
2021/08/14 01:37:36;;;;;;;7.05;4.88;;;15.90;99.90;;;;;;4187153;28;20566;-62
2021/08/14 01:39:38;;;;;;;5.65;4.30;;;15.90;99.90;;;;;;4185920;28;20074;-62
2021/08/14 01:41:56;;;;;;;6.05;4.70;;;15.80;99.90;;;;;;4187518;28;20033;-62
2021/08/14 01:44:06;;;;;;;7.15;4.53;;;15.80;99.90;;;;;;4188781;28;20033;-62
2021/08/14 01:46:07;;;;;;;8.10;4.65;;;15.80;99.90;;;;;;4191983;28;20032;-63
2021/08/14 01:48:08;;;;;;;6.88;4.95;;;15.70;99.90;;;;;;4191115;28;20033;-62
2021/08/14 01:50:09;;;;;;;6.78;4.97;;;15.60;99.90;;;;;;4191377;28;20025;-63
2021/08/14 01:52:11;;;;;;;7.13;4.30;;;15.50;99.90;;;;;;4190916;28;20032;-63
2021/08/14 01:54:13;;;;;;;6.20;5.18;;;15.50;99.90;;;;;;4192230;28;20446;-64
2021/08/14 01:56:15;;;;;;;10.38;4.60;;;15.50;99.90;;;;;;4190753;28;20024;-63
2021/08/14 01:58:16;;;;;;;6.20;4.70;;;15.40;99.90;;;;;;4192139;28;20484;-63
2021/08/14 02:00:17;;;;;;;6.78;5.38;;;15.50;99.90;;;;;;4191106;28;20059;-63
2021/08/14 02:02:19;;;;;;;7.57;5.65;;;15.40;99.90;;;;;;4191026;28;20044;-62
2021/08/14 02:04:20;;;;;;;7.30;5.75;;;15.30;99.90;;;;;;4191405;28;20081;-63
2021/08/14 02:06:25;;;;;;;7.05;5.45;;;15.20;99.90;;;;;;4190414;28;20113;-63
2021/08/14 02:08:26;;;;;;;10.65;6.60;;;15.20;99.90;;;;;;4191494;28;20085;-63
2021/08/14 02:10:27;;;;;;;10.70;5.47;;;15.20;99.90;;;;;;4190746;28;20431;-63
2021/08/14 02:12:28;;;;;;;7.20;5.07;;;15.20;99.90;;;;;;4191802;28;20040;-63
2021/08/14 02:14:29;;;;;;;6.25;5.03;;;15.10;99.90;;;;;;4190461;28;20414;-62
2021/08/14 02:16:30;;;;;;;7.60;5.30;;;15.10;99.90;;;;;;4192002;28;20040;-62
2021/08/14 02:18:32;;;;;;;10.32;5.22;;;15.20;99.90;;;;;;4190005;28;20036;-62
2021/08/14 02:20:33;;;;;;;12.75;6.75;;;15.20;99.90;;;;;;4191477;28;20078;-63
2021/08/14 02:22:34;;;;;;;7.72;5.60;;;15.10;99.90;;;;;;4190836;28;20480;-63
2021/08/14 02:24:35;;;;;;;12.88;5.22;;;15.00;99.90;;;;;;4180783;28;20099;-63
2021/08/14 02:26:36;;;;;;;7.40;5.22;;;15.00;99.90;;;;;;4174088;28;20037;-62
2021/08/14 02:28:37;;;;;;;7.97;6.15;;;15.00;99.90;;;;;;4175156;28;20086;-63
2021/08/14 02:30:39;;;;;;;10.07;5.63;;;14.90;99.90;;;;;;4174299;28;20036;-63
2021/08/14 02:32:40;;;;;;;7.83;6.00;;;14.90;99.90;;;;;;4174342;28;20505;-64
2021/08/14 02:34:41;;;;;;;8.15;5.93;;;14.80;99.90;;;;;;4174478;28;20032;-62
2021/08/14 02:36:42;;;;;;;15.25;7.03;;;14.80;99.90;;;;;;4177912;28;20052;-63
2021/08/14 02:38:43;;;;;;;9.70;7.72;;;14.70;99.90;;;;;;4190512;28;20768;-62
2021/08/14 02:40:46;;;;;;;12.53;9.20;;;14.70;99.90;;;;;;4190854;28;20024;-63
2021/08/14 02:42:48;;;;;;;13.77;9.00;;;14.70;99.90;;;;;;4190714;28;20051;-62
2021/08/14 02:44:49;;;;;;;13.20;9.87;;;14.70;99.90;;;;;;4190505;28;20024;-63
2021/08/14 02:46:50;;;;;;;12.80;9.33;;;14.70;99.90;;;;;;4190971;28;20078;-63
2021/08/14 02:48:51;;;;;;;9.97;7.33;;;14.70;99.90;;;;;;4190041;28;20032;-63
2021/08/14 02:50:52;;;;;;;10.10;5.72;;;14.70;99.90;;;;;;4190467;28;20640;-62
2021/08/14 02:52:54;;;;;;;9.83;5.70;;;14.70;99.90;;;;;;4189679;28;20028;-63
2021/08/14 02:54:55;;;;;;;8.03;5.70;;;14.70;99.90;;;;;;4190752;28;20098;-63
2021/08/14 02:56:56;;;;;;;8.43;5.63;;;14.70;99.90;;;;;;4190146;28;20041;-63
2021/08/14 02:58:57;;;;;;;8.68;5.72;;;14.60;99.90;;;;;;4191035;28;20090;-63
2021/08/14 03:00:58;;;;;;;12.83;6.93;;;14.60;99.90;;;;;;4189590;28;20098;-62
2021/08/14 03:02:59;;;;;;;12.87;7.27;;;14.50;99.90;;;;;;4190963;28;20089;-63
2021/08/14 03:05:00;;;;;;;10.60;6.30;;;14.30;99.90;;;;;;4190899;28;20078;-62
2021/08/14 03:07:02;;;;;;;16.17;6.90;;;14.20;99.90;;;;;;4187994;28;20083;-63
2021/08/14 03:09:05;;;;;;;13.40;7.03;;;14.10;99.90;;;;;;4190316;28;20029;-63
2021/08/14 03:11:06;;;;;;;15.57;7.53;;;14.00;99.90;;;;;;4190305;28;20028;-62
2021/08/14 03:13:09;;;;;;;12.80;7.63;;;14.00;99.90;;;;;;4190349;28;20040;-62
2021/08/14 03:15:11;;;;;;;15.13;7.60;;;14.00;99.90;;;;;;4188719;28;20840;-62
2021/08/14 03:17:12;;;;;;;11.73;7.13;;;14.00;99.90;;;;;;4189801;28;20048;-62
2021/08/14 03:19:13;;;;;;;12.07;7.10;;;14.00;99.90;;;;;;4189683;28;20040;-63
2021/08/14 03:21:14;;;;;;;15.53;7.53;;;14.00;99.90;;;;;;4189697;28;20052;-62
2021/08/14 03:23:15;;;;;;;13.97;7.53;;;14.00;99.90;;;;;;4188909;28;20206;-62
2021/08/14 03:25:16;;;;;;;17.80;7.83;;;14.00;99.90;;;;;;4189934;28;20044;-62
2021/08/14 03:27:17;;;;;;;11.83;7.57;;;14.00;99.90;;;;;;4189682;28;20037;-62
2021/08/14 03:29:19;;;;;;;10.43;7.40;;;14.10;99.90;;;;;;4190283;28;20162;-62
2021/08/14 03:31:23;;;;;;;20.03;7.57;;;14.10;99.90;;;;;;4189300;28;20082;-62
2021/08/14 03:33:24;;;;;;;11.60;8.60;;;14.20;99.90;;;;;;4190395;28;20028;-63
2021/08/14 03:35:25;;;;;;;16.13;8.17;;;14.30;99.90;;;;;;4189829;28;20036;-62
2021/08/14 03:37:26;;;;;;;11.70;7.90;;;14.20;99.90;;;;;;4189383;28;20086;-62
2021/08/14 03:39:27;;;;;;;12.90;8.40;;;14.20;99.90;;;;;;4189048;28;20098;-62
2021/08/14 03:41:28;;;;;;;12.03;7.80;;;14.30;99.90;;;;;;4189809;28;20086;-62
2021/08/14 03:43:30;;;;;;;12.83;8.10;;;14.50;99.90;;;;;;4189141;28;20036;-62
2021/08/14 03:45:31;;;;;;;14.80;7.47;;;14.60;99.90;;;;;;4190150;28;20110;-63
2021/08/14 03:47:32;;;;;;;9.23;7.13;;;14.80;99.90;;;;;;4189978;28;20463;-62
2021/08/14 03:49:33;;;;;;;13.93;7.40;;;15.00;99.90;;;;;;4188696;28;20044;-63
2021/08/14 03:51:34;;;;;;;14.77;7.63;;;15.30;99.90;;;;;;4189432;28;20032;-63
2021/08/14 03:53:35;;;;;;;15.17;7.43;;;15.60;99.90;;;;;;4188378;28;20028;-62
2021/08/14 03:55:36;;;;;;;22.90;7.70;;;15.90;99.90;;;;;;4190093;28;20037;-61
2021/08/14 03:57:38;;;;;;;16.07;7.23;;;16.10;99.90;;;;;;4188304;28;20114;-64
2021/08/14 03:59:39;;;;;;;13.27;7.57;;;16.30;99.90;;;;;;4190150;28;20067;-62
2021/08/14 04:01:40;;;;;;;11.07;7.07;;;16.60;99.90;;;;;;4188466;28;20049;-63
2021/08/14 04:03:41;;;;;;;9.68;6.18;;;17.00;99.90;;;;;;4189523;28;20033;-63
2021/08/14 04:05:42;;;;;;;10.25;6.20;;;17.40;99.90;;;;;;4179936;28;20025;-63
2021/08/14 04:07:43;;;;;;;16.08;6.53;;;17.70;99.90;;;;;;4189104;28;20102;-63
2021/08/14 04:09:44;;;;;;;10.07;5.55;;;17.90;99.90;;;;;;4189175;28;20141;-62
2021/08/14 04:11:45;;;;;;;12.55;6.38;;;18.40;99.90;;;;;;4189514;28;20452;-63
2021/08/14 04:13:47;;;;;;;16.23;6.20;;;18.90;99.90;;;;;;4189037;28;20044;-63
2021/08/14 04:15:48;;;;;;;17.75;6.57;;;18.90;99.90;;;;;;4189507;28;20141;-63
2021/08/14 04:17:49;;;;;;;13.95;6.78;;;18.90;99.90;;;;;;4188664;28;20052;-63
2021/08/14 04:19:50;;;;;;;19.45;7.13;;;19.20;99.90;;;;;;4188546;28;20568;-62
2021/08/14 04:21:51;;;;;;;13.57;5.88;;;19.60;99.90;;;;;;4189335;28;20586;-63
2021/08/14 04:23:53;;;;;;;12.50;6.47;;;20.00;99.90;;;;;;4188866;28;20024;-63
2021/08/14 04:25:54;;;;;;;9.07;6.47;;;20.40;99.90;;;;;;4189172;28;20366;-63
2021/08/14 04:27:55;;;;;;;20.60;7.05;;;20.70;99.90;;;;;;4187845;28;20036;-63
2021/08/14 04:29:56;;;;;;;17.77;6.15;;;21.10;99.90;;;;;;4189001;28;20093;-63
2021/08/14 04:31:57;;;;;;;13.82;6.32;;;21.20;99.90;;;;;;4188366;28;20040;-63
2021/08/14 04:33:58;;;;;;;17.50;5.60;;;21.20;99.90;;;;;;4189342;28;20021;-63
2021/08/14 04:36:00;;;;;;;16.10;6.70;;;21.30;99.90;;;;;;4188442;28;20081;-63
2021/08/14 04:38:01;;;;;;;18.40;7.25;;;20.90;99.90;;;;;;4188430;28;20044;-63
2021/08/14 04:40:05;;;;;;;13.13;6.18;;;20.90;99.90;;;;;;4188450;28;20040;-63
2021/08/14 04:42:06;;;;;;;18.08;7.25;;;20.80;99.90;;;;;;4172105;28;20059;-62
2021/08/14 04:44:07;;;;;;;14.80;6.30;;;21.20;99.90;;;;;;4177182;28;20065;-64
2021/08/14 04:46:08;;;;;;;21.52;7.22;;;21.70;99.90;;;;;;4188903;28;20094;-62
2021/08/14 04:48:09;;;;;;;21.67;7.15;;;22.10;99.90;;;;;;4188874;28;20048;-62
2021/08/14 04:50:11;;;;;;;10.80;5.30;;;22.30;99.60;;;;;;4187715;28;20044;-61
2021/08/14 04:52:12;;;;;;;18.58;6.65;;;22.50;99.40;;;;;;4188202;28;20036;-62
2021/08/14 04:54:13;;;;;;;16.85;6.13;;;22.70;99.00;;;;;;4187524;28;20075;-62
2021/08/14 04:56:14;;;;;;;13.15;5.57;;;22.60;98.60;;;;;;4188412;28;20454;-62
2021/08/14 04:58:15;;;;;;;21.25;6.70;;;22.30;98.70;;;;;;4187855;28;20580;-61
2021/08/14 05:00:16;;;;;;;15.35;5.68;;;22.30;98.60;;;;;;4188458;28;20036;-62
2021/08/14 05:02:18;;;;;;;14.85;6.25;;;22.10;98.70;;;;;;4187304;28;20048;-62
2021/08/14 05:04:19;;;;;;;16.75;7.10;;;22.10;98.70;;;;;;4188837;28;20086;-62
2021/08/14 05:06:20;;;;;;;16.23;7.18;;;22.20;98.60;;;;;;4187649;28;20173;-62
2021/08/14 05:08:22;;;;;;;25.00;6.78;;;22.30;98.40;;;;;;4187778;28;20492;-62
2021/08/14 05:10:23;;;;;;;21.63;7.20;;;22.40;98.20;;;;;;4188217;28;20029;-62
2021/08/14 05:12:24;;;;;;;12.88;7.22;;;22.60;98.00;;;;;;4188777;28;20538;-61
2021/08/14 05:14:25;;;;;;;17.52;6.97;;;22.90;97.30;;;;;;4189101;28;20025;-62
2021/08/14 05:16:26;;;;;;;20.33;7.63;;;23.40;97.00;;;;;;4188351;28;20573;-62
2021/08/14 05:18:28;;;;;;;14.10;7.00;;;23.70;96.20;;;;;;4188698;28;20040;-63
2021/08/14 05:20:29;;;;;;;17.70;8.38;;;23.80;95.70;;;;;;4186402;28;20040;-62
2021/08/14 05:22:30;;;;;;;22.33;9.40;;;23.60;95.50;;;;;;4188950;28;20025;-63
2021/08/14 05:24:31;;;;;;;15.73;8.48;;;23.50;95.70;;;;;;4187236;28;20044;-63
2021/08/14 05:26:33;;;;;;;20.20;8.93;;;23.60;95.50;;;;;;4187839;28;20029;-62
2021/08/14 05:28:34;;;;;;;19.13;8.05;;;23.40;95.60;;;;;;4187806;28;20033;-62
2021/08/14 05:30:35;;;;;;;27.63;9.35;;;23.40;95.60;;;;;;4188863;28;20028;-62
2021/08/14 05:32:36;;;;;;;16.05;8.25;;;23.20;95.50;;;;;;4185193;28;20052;-62
2021/08/14 05:34:37;;;;;;;20.35;9.25;;;22.50;96.10;;;;;;4187906;28;20133;-62
2021/08/14 05:36:38;;;;;;;23.88;9.27;;;22.00;96.80;;;;;;4184472;28;20089;-62
2021/08/14 05:38:39;;;;;;;21.27;9.52;;;21.90;97.30;;;;;;4182711;28;20496;-62
2021/08/14 05:40:41;;;;;;;12.70;7.90;;;22.10;97.10;;;;;;4186754;28;20032;-62
2021/08/14 05:42:42;;;;;;;16.77;7.45;;;22.30;96.80;;;;;;4187358;28;20166;-62
2021/08/14 05:44:44;;;;;;;15.27;8.20;;;22.10;96.80;;;;;;4188138;28;20527;-63
2021/08/14 05:46:45;;;;;;;18.52;9.27;;;21.90;97.00;;;;;;4187516;28;20396;-62
2021/08/14 05:48:46;;;;;;;17.77;8.68;;;22.20;97.10;;;;;;4187735;28;20025;-62
2021/08/14 05:50:48;;;;;;;26.42;11.43;;;22.70;96.40;;;;;;4187333;28;20094;-62
2021/08/14 05:52:49;;;;;;;18.05;8.77;;;22.70;96.20;;;;;;4187426;28;20818;-62
2021/08/14 05:54:50;;;;;;;19.60;8.23;;;22.80;96.00;;;;;;4187099;28;20037;-62
2021/08/14 05:56:51;;;;;;;18.25;9.10;;;22.80;95.80;;;;;;4188070;28;20025;-62
2021/08/14 05:58:52;;;;;;;16.63;8.98;;;23.00;95.50;;;;;;4186807;28;20045;-62
2021/08/14 06:00:54;;;;;;;16.35;7.65;;;23.20;95.40;;;;;;4188082;28;20129;-62
2021/08/14 06:02:55;;;;;;;18.05;7.85;;;23.40;95.00;;;;;;4187159;28;20040;-62
2021/08/14 06:04:56;;;;;;;17.00;7.60;;;23.30;95.00;;;;;;4187820;28;20036;-62
2021/08/14 06:06:58;;;;;;;17.60;7.80;;;23.20;95.10;;;;;;4188502;28;20757;-62
2021/08/14 06:08:59;;;;;;;15.68;8.77;;;22.60;95.60;;;;;;4190721;28;20037;-63
2021/08/14 06:11:00;;;;;;;16.83;7.97;;;22.40;96.10;;;;;;4189774;28;20366;-62
2021/08/14 06:13:01;;;;;;;17.45;8.32;;;22.30;96.30;;;;;;4191288;28;20727;-63
2021/08/14 06:15:03;;;;;;;14.45;7.97;;;22.50;96.20;;;;;;4190145;28;20819;-62
2021/08/14 06:17:04;;;;;;;14.45;7.15;;;22.70;95.90;;;;;;4190470;28;20086;-63
2021/08/14 06:19:06;;;;;;;21.50;8.88;;;23.00;95.40;;;;;;4190301;28;20048;-63
2021/08/14 06:21:09;;;;;;;16.75;7.70;;;23.20;95.10;;;;;;4190330;28;20303;-64
2021/08/14 06:23:10;;;;;;;15.63;7.70;;;23.30;94.90;;;;;;4190922;28;20041;-62
2021/08/14 06:25:11;;;;;;;17.10;7.65;;;23.60;94.80;;;;;;4190350;28;20712;-62
2021/08/14 06:27:13;;;;;;;14.52;6.40;;;23.80;94.30;;;;;;4191024;28;20569;-62
2021/08/14 06:29:14;;;;;;;10.20;7.63;;;24.10;93.90;;;;;;4189425;28;20386;-62
2021/08/14 06:31:16;;;;;;;10.20;6.57;;;24.10;93.70;;;;;;4189291;28;20028;-62
2021/08/14 06:33:17;;;;;;;13.68;7.47;;;24.10;93.60;;;;;;4187954;28;20082;-61
2021/08/14 06:35:18;;;;;;;10.80;6.00;;;24.20;93.40;;;;;;4191105;28;20033;-64
2021/08/14 06:37:20;;;;;;;8.82;5.70;;;23.90;93.50;;;;;;4189232;28;20977;-61
2021/08/14 06:39:21;;;;;;;13.07;5.72;;;23.90;93.70;;;;;;4190872;28;20033;-63
2021/08/14 06:41:22;;;;;;;12.18;6.40;;;24.20;93.60;;;;;;4188903;28;20112;-63
2021/08/14 06:43:23;;;;;;;13.63;7.00;;;24.50;93.30;;;;;;4190215;28;20053;-62
2021/08/14 06:45:24;;;;;;;13.85;6.22;;;24.50;93.20;;;;;;4190029;28;20032;-64
2021/08/14 06:47:25;;;;;;;10.48;6.30;;;24.30;93.20;;;;;;4189984;28;20579;-61
2021/08/14 06:49:26;;;;;;;10.07;6.63;;;24.30;93.20;;;;;;4189757;28;20094;-67
2021/08/14 06:51:28;;;;;;;9.98;5.75;;;24.30;93.20;;;;;;4189519;28;20448;-61
2021/08/14 06:53:29;;;;;;;14.30;6.35;;;24.40;93.20;;;;;;4190225;28;20029;-62
2021/08/14 06:55:30;;;;;;;9.32;5.28;;;24.30;93.00;;;;;;4187477;28;20094;-62
2021/08/14 06:57:32;;;;;;;6.78;4.50;;;24.30;92.90;;;;;;4190105;28;20141;-61
2021/08/14 06:59:33;;;;;;;7.90;5.07;;;24.30;92.70;;;;;;4189502;28;20499;-62
2021/08/14 07:01:34;;;;;;;6.57;5.15;;;24.10;92.70;;;;;;4188664;28;20041;-62
2021/08/14 07:03:35;;;;;;;7.97;6.13;;;23.70;92.90;;;;;;4188669;28;20037;-62
2021/08/14 07:05:40;;;;;;;10.95;6.25;;;23.30;93.50;;;;;;4188730;28;20048;-62
2021/08/14 07:07:41;;;;;;;8.32;5.07;;;23.30;93.70;;;;;;4188828;28;20098;-63
2021/08/14 07:09:42;;;;;;;7.30;5.00;;;23.40;93.60;;;;;;4190201;28;20098;-63
2021/08/14 07:11:45;;;;;;;9.77;5.20;;;23.20;93.40;;;;;;4188892;28;20094;-64
2021/08/14 07:13:47;;;;;;;7.70;4.55;;;23.20;93.40;;;;;;4189867;28;20053;-63
2021/08/14 07:15:48;;;;;;;8.05;4.68;;;23.20;93.20;;;;;;4189402;28;20553;-62
2021/08/14 07:17:50;;;;;;;13.00;5.05;;;23.40;93.20;;;;;;4188456;28;20094;-61
2021/08/14 07:19:52;;;;;;;9.90;5.60;;;23.60;92.80;;;;;;4188938;28;20067;-63
2021/08/14 07:21:53;;;;;;;7.38;3.95;;;23.90;92.50;;;;;;4188358;28;20058;-62
2021/08/14 07:23:54;;;;;;;5.75;4.65;;;24.30;92.40;;;;;;4189612;28;20040;-61
2021/08/14 07:25:55;;;;;;;4.63;3.00;;;24.50;91.90;;;;;;4189373;28;20036;-61
2021/08/14 07:27:56;;;;;;;9.55;4.05;;;24.50;91.50;;;;;;4189560;28;20040;-60
2021/08/14 07:29:58;;;;;;;7.68;3.17;;;24.40;91.40;;;;;;4188819;28;21143;-61
2021/08/14 07:31:59;;;;;;;7.15;3.70;;;24.30;91.20;;;;;;4190359;28;20492;-63
2021/08/14 07:34:00;;;;;;;6.13;4.07;;;24.10;91.40;;;;;;4188272;28;20036;-62
2021/08/14 07:36:01;;;;;;;4.57;3.70;;;24.10;91.70;;;;;;4184799;28;20374;-65
2021/08/14 07:38:02;;;;;;;5.25;3.35;;;24.10;91.60;;;;;;4188206;28;20071;-63
2021/08/14 07:40:04;;;;;;;4.00;3.15;;;24.20;91.30;;;;;;4189343;28;21126;-61
2021/08/14 07:42:05;;;;;;;6.70;3.40;;;24.30;91.10;;;;;;4188882;28;20748;-63
2021/08/14 07:44:06;;;;;;;6.05;3.45;;;24.30;91.10;;;;;;4189984;28;20036;-63
2021/08/14 07:46:09;;;;;;;9.68;3.97;;;24.40;91.30;;;;;;4188112;28;20036;-62
2021/08/14 07:48:10;;;;;;;6.18;3.90;;;24.80;91.00;;;;;;4188871;28;20040;-61
2021/08/14 07:50:14;;;;;;;7.43;3.97;;;24.80;90.70;;;;;;4188271;28;20043;-62
2021/08/14 07:52:15;;;;;;;7.47;3.85;;;24.70;90.70;;;;;;4185716;28;20507;-61
2021/08/14 07:54:16;;;;;;;9.70;3.47;;;24.70;91.00;;;;;;4189718;28;20094;-61
2021/08/14 07:56:17;;;;;;;4.40;3.25;;;24.80;91.00;;;;;;4188974;28;20043;-62
2021/08/14 07:58:19;;;;;;;5.35;3.60;;;24.70;90.70;;;;;;4189603;28;20036;-62
2021/08/14 08:00:22;;;;;;;3.65;3.10;;;24.60;90.60;;;;;;4188322;28;20024;-62
2021/08/14 08:02:23;;;;;;;4.85;4.35;;;24.60;90.50;;;;;;4189785;28;20503;-61
2021/08/14 08:04:24;;;;;;;9.93;3.42;;;24.40;90.60;;;;;;4188255;28;20029;-63
2021/08/14 08:06:26;;;;;;;6.78;3.50;;;24.50;90.70;;;;;;4189246;28;20073;-63
2021/08/14 08:08:29;;;;;;;6.82;3.60;;;24.70;90.70;;;;;;4187684;28;20032;-63
2021/08/14 08:10:31;;;;;;;3.33;3.03;;;24.90;90.60;;;;;;4189229;28;20045;-62
2021/08/14 08:12:32;;;;;;;7.88;3.88;;;24.90;90.50;;;;;;4186250;28;20032;-63
2021/08/14 08:14:33;;;;;;;4.93;3.50;;;24.90;90.40;;;;;;4187501;28;20050;-64
2021/08/14 08:16:34;;;;;;;7.80;3.90;;;24.90;90.40;;;;;;4182377;28;20036;-64
2021/08/14 08:18:35;;;;;;;7.18;4.15;;;24.60;90.50;;;;;;4189331;28;20082;-63
2021/08/14 08:20:36;;;;;;;7.28;3.65;;;24.40;91.10;;;;;;4189034;28;20074;-63
2021/08/14 08:22:38;;;;;;;5.35;3.72;;;24.30;91.40;;;;;;4187803;28;20467;-63
2021/08/14 08:24:39;;;;;;;8.27;3.72;;;24.20;91.70;;;;;;4189506;28;20024;-63
2021/08/14 08:26:40;;;;;;;9.45;4.55;;;24.20;91.90;;;;;;4188845;28;20048;-64
2021/08/14 08:28:41;;;;;;;7.47;4.78;;;24.30;91.60;;;;;;4189621;28;20029;-62
2021/08/14 08:30:44;;;;;;;4.47;3.78;;;24.40;91.40;;;;;;4187697;28;20078;-64
2021/08/14 08:32:45;;;;;;;8.52;4.47;;;24.50;91.40;;;;;;4189542;28;20100;-62
2021/08/14 08:34:47;;;;;;;8.18;3.65;;;24.50;91.20;;;;;;4188128;28;20078;-62
2021/08/14 08:36:48;;;;;;;7.95;4.18;;;24.50;91.10;;;;;;4187761;28;20086;-62
2021/08/14 08:38:49;;;;;;;4.72;4.03;;;24.60;91.20;;;;;;4188272;28;20040;-61
2021/08/14 08:40:50;;;;;;;5.70;4.10;;;24.80;91.20;;;;;;4189563;28;20050;-62
2021/08/14 08:42:51;;;;;;;14.02;4.50;;;24.80;91.20;;;;;;4187732;28;20066;-63
2021/08/14 08:44:52;;;;;;;7.13;5.03;;;25.00;91.10;;;;;;4189397;28;20113;-62
2021/08/14 08:46:54;;;;;;;8.15;4.85;;;25.20;90.90;;;;;;4188945;28;20202;-64
2021/08/14 08:48:57;;;;;;;8.48;3.97;;;25.30;90.80;;;;;;4188478;28;20061;-64
2021/08/14 08:51:03;;;;;;;12.60;5.25;;;25.30;90.60;;;;;;4186267;28;20020;-62
2021/08/14 08:53:04;;;;;;;14.10;4.53;;;25.70;90.50;;;;;;4185643;28;20090;-62
2021/08/14 08:55:07;;;;;;;9.52;6.25;;;25.90;90.30;;;;;;4188639;28;20062;-61
2021/08/14 08:57:09;;;;;;;7.10;4.90;;;25.70;90.20;;;;;;4187949;28;20032;-63
2021/08/14 08:59:11;;;;;;;6.53;3.85;;;25.70;90.10;;;;;;4188700;28;20497;-62
2021/08/14 09:01:13;;;;;;;7.47;3.88;;;25.80;90.00;;;;;;4188089;28;20453;-62
2021/08/14 09:03:15;;;;;;;7.18;4.15;;;26.00;89.80;;;;;;4189085;28;20038;-62
2021/08/14 09:05:21;;;;;;;4.20;3.42;;;26.10;89.50;;;;;;4188695;28;20082;-62
2021/08/14 09:07:28;;;;;;;5.72;3.95;;;26.10;89.00;;;;;;4188336;28;20074;-63
2021/08/14 09:09:31;;;;;;;8.13;4.15;;;26.10;89.10;;;;;;4187749;28;20021;-62
2021/08/14 09:11:32;;;;;;;8.07;5.00;;;26.10;89.00;;;;;;4188454;28;20090;-62
2021/08/14 09:13:34;;;;;;;9.82;6.28;;;26.10;89.40;;;;;;4188448;28;20025;-62
2021/08/14 09:15:35;;;;;;;11.45;5.32;;;26.00;89.80;;;;;;4188695;28;20037;-62
2021/08/14 09:17:36;;;;;;;9.55;4.55;;;26.00;90.00;;;;;;4186777;28;20080;-62
2021/08/14 09:19:37;;;;;;;6.40;4.25;;;26.10;89.70;;;;;;4188688;28;20102;-62
2021/08/14 09:21:40;;;;;;;4.63;3.67;;;26.10;89.50;;;;;;4188090;28;20025;-62
2021/08/14 09:23:43;;;;;;;12.88;5.43;;;26.20;89.10;;;;;;4188281;28;20044;-62
2021/08/14 09:25:52;;;;;;;5.47;3.90;;;26.20;89.10;;;;;;4188130;28;20090;-63
2021/08/14 09:28:00;;;;;;;9.10;4.10;;;26.20;89.10;;;;;;4188105;28;20032;-63
2021/08/14 09:30:01;;;;;;;6.80;3.75;;;26.10;89.10;;;;;;4187850;28;20086;-63
2021/08/14 09:32:08;;;;;;;5.90;4.10;;;25.90;89.60;;;;;;4188430;28;20048;-63
2021/08/14 09:34:21;;;;;;;6.65;3.97;;;25.80;89.80;;;;;;4187523;28;20041;-62
2021/08/14 09:36:22;;;;;;;9.55;3.95;;;25.90;89.80;;;;;;4188395;28;20032;-62
2021/08/14 09:38:35;;;;;;;5.00;3.63;;;26.10;89.50;;;;;;4188089;28;20036;-62
2021/08/14 09:40:41;;;;;;;9.48;4.28;;;26.10;89.60;;;;;;4187963;28;20044;-63
2021/08/14 09:42:52;;;;;;;9.98;3.60;;;26.20;89.70;;;;;;4190959;28;20016;-62
2021/08/14 09:45:13;;;;;;;8.27;3.85;;;26.40;89.20;;;;;;4191435;28;20516;-64
2021/08/14 09:47:33;;;;;;;5.68;3.67;;;26.70;89.50;;;;;;4191521;28;20066;-62
2021/08/14 09:49:50;;;;;;;;;;;27.00;89.00;;;;;;4191945;28;20130;-62
2021/08/14 09:51:51;;;;;;;6.13;3.15;;;27.00;88.30;;;;;;4190947;28;20346;-64
2021/08/14 09:53:56;;;;;;;9.25;3.60;;;27.00;88.50;;;;;;4190592;28;20102;-62
2021/08/14 09:56:05;;;;;;;7.63;3.97;;;27.10;88.20;;;;;;4190996;28;20383;-61
2021/08/14 09:58:09;;;;;;;4.90;4.05;;;27.00;88.50;;;;;;4190679;28;20052;-61
2021/08/14 10:00:11;;;;;;;6.80;4.07;;;26.80;89.00;;;;;;4190789;28;20078;-60
2021/08/14 10:02:20;;;;;;;5.78;3.83;;;26.70;89.20;;;;;;4190591;28;20025;-65
2021/08/14 10:04:22;;;;;;;8.40;4.70;;;26.70;89.10;;;;;;4190156;28;20062;-65
2021/08/14 10:06:23;;;;;;;9.15;4.13;;;26.70;89.20;;;;;;4190120;28;20050;-64
2021/08/14 10:08:26;;;;;;;6.97;4.07;;;27.00;88.70;;;;;;4190894;28;20083;-62
2021/08/14 10:10:28;;;;;;;6.93;3.90;;;27.10;88.10;;;;;;4188865;28;20062;-64
2021/08/14 10:12:31;;;;;;;6.88;3.55;;;27.20;87.70;;;;;;4189822;28;20559;-62
2021/08/14 10:14:33;;;;;;;7.00;4.05;;;27.30;86.50;;;;;;4190427;28;20071;-62
2021/08/14 10:16:35;;;;;;;4.53;3.08;;;27.10;86.10;;;;;;4191631;28;20032;-64
2021/08/14 10:18:40;;;;;;;3.92;3.13;;;27.10;85.90;;;;;;4189792;28;20110;-63
2021/08/14 10:20:41;;;;;;;5.32;3.30;;;27.10;85.10;;;;;;4190754;28;20048;-63
2021/08/14 10:22:45;;;;;;;5.47;3.50;;;27.10;84.90;;;;;;4189903;28;20109;-64
2021/08/14 10:24:46;;;;;;;7.90;3.63;;;27.00;84.70;;;;;;4191089;28;20484;-62
2021/08/14 10:26:48;;;;;;;3.58;3.10;;;26.90;84.90;;;;;;4190150;28;20082;-63
2021/08/14 10:28:51;;;;;;;5.95;3.13;;;26.90;84.40;;;;;;4190880;28;20036;-63
2021/08/14 10:30:53;;;;;;;5.35;3.40;;;27.00;83.90;;;;;;4190293;28;20849;-63